createdAt,value
2023-03-02T00:03:19.564Z,98255.00
2023-03-02T00:07:24.470Z,98244.00
2023-03-02T00:11:27.545Z,98255.00
2023-03-02T00:15:28.560Z,98256.00
2023-03-02T00:19:29.994Z,98255.00
2023-03-02T00:23:31.213Z,98252.00
2023-03-02T00:27:32.361Z,98259.00
2023-03-02T00:31:34.018Z,98250.00
2023-03-02T00:35:39.836Z,98253.00
2023-03-02T00:39:41.269Z,98245.00
2023-03-02T00:43:42.456Z,98239.00
2023-03-02T00:47:43.477Z,98239.00
2023-03-02T00:51:44.642Z,98231.00
2023-03-02T00:55:55.335Z,98228.00
2023-03-02T00:59:56.427Z,98225.00
2023-03-02T01:03:57.562Z,98225.00
2023-03-02T01:07:58.698Z,98219.00
2023-03-02T01:11:59.979Z,98214.00
2023-03-02T01:16:04.327Z,98210.00
2023-03-02T01:20:08.244Z,98209.00
2023-03-02T01:24:10.589Z,98201.00
2023-03-02T01:28:12.390Z,98201.00
2023-03-02T01:32:13.616Z,98191.00
2023-03-02T01:36:14.533Z,98195.00
2023-03-02T01:40:15.541Z,98188.00
2023-03-02T01:44:36.842Z,98196.00
2023-03-02T01:48:47.857Z,98192.00
2023-03-02T01:52:49.680Z,98181.00
2023-03-02T01:56:54.667Z,98181.00
2023-03-02T02:00:56.921Z,98177.00
2023-03-02T02:04:57.989Z,98188.00
2023-03-02T02:09:00.740Z,98226.00
2023-03-02T02:13:02.446Z,98182.00
2023-03-02T02:17:03.698Z,98181.00
2023-03-02T02:21:05.672Z,98173.00
2023-03-02T02:25:10.622Z,98162.00
2023-03-02T02:29:17.327Z,98049.00
2023-03-02T02:37:25.062Z,98161.00
2023-03-02T02:41:29.975Z,98157.00
2023-03-02T02:45:31.403Z,97998.00
2023-03-02T02:49:38.312Z,98170.00
2023-03-02T02:53:57.060Z,98173.00
2023-03-02T02:58:01.582Z,98140.00
2023-03-02T03:02:02.796Z,98149.00
2023-03-02T03:06:07.357Z,98139.00
2023-03-02T03:10:12.427Z,98145.00
2023-03-02T03:14:16.872Z,98145.00
2023-03-02T03:18:23.232Z,98142.00
2023-03-02T03:22:24.392Z,98145.00
2023-03-02T03:26:25.690Z,98141.00
2023-03-02T03:30:26.651Z,98134.00
2023-03-02T03:34:29.289Z,98136.00
2023-03-02T03:38:30.671Z,98139.00
2023-03-02T03:42:32.094Z,98128.00
2023-03-02T03:46:34.169Z,98139.00
2023-03-02T03:50:35.956Z,98136.00
2023-03-02T03:54:37.720Z,98140.00
2023-03-02T03:58:38.943Z,98144.00
2023-03-02T04:02:40.596Z,98142.00
2023-03-02T04:06:42.155Z,98140.00
2023-03-02T04:10:43.330Z,98139.00
2023-03-02T04:14:45.013Z,98140.00
2023-03-02T04:18:45.948Z,98132.00
2023-03-02T04:22:50.111Z,98129.00
2023-03-02T04:26:51.294Z,98131.00
2023-03-02T04:30:53.046Z,98139.00
2023-03-02T04:34:54.042Z,98131.00
2023-03-02T04:38:55.332Z,98135.00
2023-03-02T04:42:56.386Z,98141.00
2023-03-02T04:46:57.528Z,98134.00
2023-03-02T04:50:58.700Z,98136.00
2023-03-02T04:54:59.680Z,98139.00
2023-03-02T04:59:00.822Z,98139.00
2023-03-02T05:03:03.304Z,98149.00
2023-03-02T05:07:04.220Z,98146.00
2023-03-02T05:11:07.378Z,98147.00
2023-03-02T05:15:09.003Z,98150.00
2023-03-02T05:19:11.425Z,98159.00
2023-03-02T05:23:19.447Z,98167.00
2023-03-02T05:27:20.530Z,98145.00
2023-03-02T05:31:25.168Z,98156.00
2023-03-02T05:35:26.601Z,98148.00
2023-03-02T05:39:27.580Z,98156.00
2023-03-02T05:43:29.263Z,98154.00
2023-03-02T05:47:30.294Z,98151.00
2023-03-02T05:51:31.261Z,98174.00
2023-03-02T05:55:36.448Z,98161.00
2023-03-02T05:59:37.679Z,98163.00
2023-03-02T06:03:38.651Z,98171.00
2023-03-02T06:07:40.487Z,98181.00
2023-03-02T06:11:42.171Z,98168.00
2023-03-02T06:15:43.304Z,98176.00
2023-03-02T06:19:44.431Z,98169.00
2023-03-02T06:23:45.585Z,98162.00
2023-03-02T06:27:49.195Z,98169.00
2023-03-02T06:31:50.397Z,98178.00
2023-03-02T06:35:51.841Z,98176.00
2023-03-02T06:39:52.885Z,98170.00
2023-03-02T06:43:54.010Z,98170.00
2023-03-02T06:47:55.449Z,98171.00
2023-03-02T06:51:56.496Z,98180.00
2023-03-02T06:55:57.750Z,98181.00
2023-03-02T07:00:02.111Z,98181.00
2023-03-02T07:04:03.623Z,98179.00
2023-03-02T07:08:05.232Z,98183.00
2023-03-02T07:12:06.477Z,98185.00
2023-03-02T07:16:12.378Z,98182.00
2023-03-02T07:20:16.918Z,98181.00
2023-03-02T07:24:18.082Z,98177.00
2023-03-02T07:28:21.180Z,98163.00
2023-03-02T07:32:22.415Z,98177.00
2023-03-02T07:36:23.489Z,98172.00
2023-03-02T07:40:24.676Z,98172.00
2023-03-02T07:44:27.283Z,98183.00
2023-03-02T07:48:28.474Z,98160.00
2023-03-02T07:52:30.285Z,98167.00
2023-03-02T07:56:31.537Z,98168.00
2023-03-02T08:00:33.469Z,98170.00
2023-03-02T08:04:35.472Z,98166.00
2023-03-02T08:08:36.683Z,98178.00
2023-03-02T08:12:37.993Z,98163.00
2023-03-02T08:16:39.610Z,98162.00
2023-03-02T08:20:40.709Z,97980.00
2023-03-02T08:24:42.301Z,98165.00
2023-03-02T08:28:43.505Z,98172.00
2023-03-02T08:32:44.780Z,98174.00
2023-03-02T08:36:46.052Z,98166.00
2023-03-02T08:40:47.358Z,98155.00
2023-03-02T08:44:48.524Z,98163.00
2023-03-02T08:48:50.717Z,98157.00
2023-03-02T08:52:51.762Z,98159.00
2023-03-02T08:56:53.235Z,98153.00
2023-03-02T09:00:54.663Z,97976.00
2023-03-02T09:04:56.006Z,98152.00
2023-03-02T09:08:57.912Z,98154.00
2023-03-02T09:12:59.289Z,98152.00
2023-03-02T09:17:00.515Z,98140.00
2023-03-02T09:21:02.602Z,98143.00
2023-03-02T09:25:05.288Z,98144.00
2023-03-02T09:29:06.818Z,98143.00
2023-03-02T09:33:07.887Z,98144.00
2023-03-02T09:37:09.082Z,98145.00
2023-03-02T09:41:23.000Z,98143.00
2023-03-02T09:45:45.810Z,98137.00
2023-03-02T09:50:11.605Z,98138.00
2023-03-02T09:54:20.858Z,98141.00
2023-03-02T09:58:25.069Z,98140.00
2023-03-02T10:02:39.094Z,98136.00
2023-03-02T10:06:40.056Z,98123.00
2023-03-02T10:10:47.798Z,98132.00
2023-03-02T10:14:52.685Z,98130.00
2023-03-02T10:19:15.624Z,98131.00
2023-03-02T10:23:32.309Z,98130.00
2023-03-02T10:27:39.039Z,98130.00
2023-03-02T10:31:40.517Z,98123.00
2023-03-02T10:35:45.617Z,98122.00
2023-03-02T10:39:46.762Z,98125.00
2023-03-02T10:43:51.965Z,98123.00
2023-03-02T10:48:09.080Z,98091.00
2023-03-02T10:52:13.182Z,98114.00
2023-03-02T10:56:20.721Z,98107.00
2023-03-02T11:00:26.912Z,98140.00
2023-03-02T11:04:30.887Z,98098.00
2023-03-02T11:08:32.432Z,98106.00
2023-03-02T11:12:36.480Z,97928.00
2023-03-02T11:16:37.432Z,98098.00
2023-03-02T11:20:45.143Z,98103.00
2023-03-02T11:24:49.957Z,98099.00
2023-03-02T11:29:00.697Z,98089.00
2023-03-02T11:33:05.628Z,98087.00
2023-03-02T11:37:16.278Z,98097.00
2023-03-02T11:41:29.267Z,98093.00
2023-03-02T11:45:45.456Z,98072.00
2023-03-02T11:49:56.615Z,98076.00
2023-03-02T11:54:07.588Z,98067.00
2023-03-02T11:58:12.514Z,98072.00
2023-03-02T12:02:14.611Z,98077.00
2023-03-02T12:06:19.813Z,98074.00
2023-03-02T12:10:26.671Z,98067.00
2023-03-02T12:14:31.478Z,98062.00
2023-03-02T12:18:45.365Z,98073.00
2023-03-02T12:22:46.366Z,98061.00
2023-03-02T12:26:47.345Z,98063.00
2023-03-02T12:30:58.461Z,98064.00
2023-03-02T12:35:15.031Z,98064.00
2023-03-02T12:39:31.652Z,98061.00
2023-03-02T12:43:34.827Z,98056.00
2023-03-02T12:47:38.083Z,98039.00
2023-03-02T12:51:55.363Z,98036.00
2023-03-02T12:55:57.158Z,98021.00
2023-03-02T13:00:01.555Z,98006.00
2023-03-02T13:04:04.797Z,98011.00
2023-03-02T13:08:09.799Z,98006.00
2023-03-02T13:12:14.201Z,98009.00
2023-03-02T13:16:30.703Z,98010.00
2023-03-02T13:20:32.612Z,98008.00
2023-03-02T13:24:52.333Z,97987.00
2023-03-02T13:29:04.699Z,97991.00
2023-03-02T13:33:15.128Z,98008.00
2023-03-02T13:37:19.895Z,97996.00
2023-03-02T13:41:23.526Z,97984.00
2023-03-02T13:45:27.675Z,97980.00
2023-03-02T13:49:34.579Z,97980.00
2023-03-02T13:53:37.423Z,97979.00
2023-03-02T13:57:40.742Z,97974.00
2023-03-02T14:01:43.506Z,97979.00
2023-03-02T14:05:44.626Z,97961.00
2023-03-02T14:09:46.371Z,97967.00
2023-03-02T14:13:51.440Z,97969.00
2023-03-02T14:17:52.829Z,97981.00
2023-03-02T14:21:58.545Z,97979.00
2023-03-02T14:26:00.037Z,97956.00
2023-03-02T14:30:01.493Z,97953.00
2023-03-02T14:34:02.557Z,97938.00
2023-03-02T14:38:04.378Z,97967.00
2023-03-02T14:42:07.969Z,97972.00
2023-03-02T14:46:09.079Z,97958.00
2023-03-02T14:50:11.449Z,97968.00
2023-03-02T14:54:16.295Z,97957.00
2023-03-02T14:58:20.296Z,97950.00
2023-03-02T15:02:26.062Z,97945.00
2023-03-02T15:06:31.294Z,97943.00
2023-03-02T15:10:32.710Z,97963.00
2023-03-02T15:14:33.802Z,97973.00
2023-03-02T15:18:35.299Z,97968.00
2023-03-02T15:22:36.538Z,97964.00
2023-03-02T15:26:38.876Z,97967.00
2023-03-02T15:30:41.090Z,97966.00
2023-03-02T15:34:42.427Z,97971.00
2023-03-02T15:38:43.574Z,97963.00
2023-03-02T15:42:44.913Z,97975.00
2023-03-02T15:46:46.062Z,97960.00
2023-03-02T15:51:02.829Z,97844.00
2023-03-02T15:55:04.750Z,97964.00
2023-03-02T15:59:06.494Z,97976.00
2023-03-02T16:03:08.013Z,97969.00
2023-03-02T16:07:09.341Z,97982.00
2023-03-02T16:11:12.092Z,97977.00
2023-03-02T16:15:13.323Z,97976.00
2023-03-02T16:19:19.167Z,97974.00
2023-03-02T16:23:20.782Z,97981.00
2023-03-02T16:27:21.859Z,97986.00
2023-03-02T16:31:25.608Z,97986.00
2023-03-02T16:35:27.982Z,97998.00
2023-03-02T16:39:29.587Z,97989.00
2023-03-02T16:43:32.825Z,97876.00
2023-03-02T16:47:33.955Z,97995.00
2023-03-02T16:51:35.469Z,97997.00
2023-03-02T16:55:36.866Z,98000.00
2023-03-02T16:59:38.045Z,98004.00
2023-03-02T17:03:39.496Z,97997.00
2023-03-02T17:07:40.654Z,98000.00
2023-03-02T17:11:42.131Z,98001.00
2023-03-02T17:15:43.628Z,98008.00
2023-03-02T17:19:45.118Z,98009.00
2023-03-02T17:23:47.528Z,98010.00
2023-03-02T17:27:48.809Z,98018.00
2023-03-02T17:31:50.065Z,98026.00
2023-03-02T17:35:51.608Z,98026.00
2023-03-02T17:39:53.026Z,98039.00
2023-03-02T17:43:54.340Z,98040.00
2023-03-02T17:47:57.424Z,98048.00
2023-03-02T17:51:58.896Z,98055.00
2023-03-02T17:56:00.117Z,98058.00
2023-03-02T18:00:02.284Z,98061.00
2023-03-02T18:04:04.472Z,98069.00
2023-03-02T18:08:05.630Z,98073.00
2023-03-02T18:12:07.407Z,98073.00
2023-03-02T18:16:08.969Z,98081.00
2023-03-02T18:20:11.628Z,98082.00
2023-03-02T18:24:13.303Z,98079.00
2023-03-02T18:28:15.283Z,98082.00
2023-03-02T18:32:16.787Z,98083.00
2023-03-02T18:36:18.026Z,98090.00
2023-03-02T18:40:19.745Z,98095.00
2023-03-02T18:44:21.892Z,98094.00
2023-03-02T18:48:24.288Z,98093.00
2023-03-02T18:52:26.039Z,98097.00
2023-03-02T18:56:27.859Z,98099.00
2023-03-02T19:00:29.807Z,98112.00
2023-03-02T19:04:31.209Z,98111.00
2023-03-02T19:08:35.371Z,98121.00
2023-03-02T19:12:36.982Z,98117.00
2023-03-02T19:16:38.697Z,98126.00
2023-03-02T19:20:40.173Z,98114.00
2023-03-02T19:24:43.871Z,98111.00
2023-03-02T19:28:45.391Z,98116.00
2023-03-02T19:32:47.503Z,98126.00
2023-03-02T19:36:48.949Z,98132.00
2023-03-02T19:40:50.280Z,98133.00
2023-03-02T19:44:52.113Z,98140.00
2023-03-02T19:48:53.860Z,98141.00
2023-03-02T19:52:56.215Z,98139.00
2023-03-02T19:56:57.842Z,98148.00
2023-03-02T20:00:59.344Z,98148.00
2023-03-02T20:05:01.237Z,98156.00
2023-03-02T20:09:06.456Z,98152.00
2023-03-02T20:13:08.836Z,98154.00
2023-03-02T20:17:10.114Z,98141.00
2023-03-02T20:21:11.615Z,98139.00
2023-03-02T20:25:14.127Z,98140.00
2023-03-02T20:29:15.442Z,98146.00
2023-03-02T20:33:18.818Z,98141.00
2023-03-02T20:37:22.212Z,98143.00
2023-03-02T20:41:23.662Z,98138.00
2023-03-02T20:45:24.932Z,98144.00
2023-03-02T20:49:28.722Z,98140.00
2023-03-02T20:53:30.366Z,98142.00
2023-03-02T20:57:32.098Z,98144.00
2023-03-02T21:01:33.709Z,98149.00
2023-03-02T21:05:39.554Z,98144.00
2023-03-02T21:09:41.387Z,98140.00
2023-03-02T21:13:47.364Z,98149.00
2023-03-02T21:17:50.889Z,98143.00
2023-03-02T21:21:54.216Z,98161.00
2023-03-02T21:25:56.149Z,98159.00
2023-03-02T21:29:57.845Z,98168.00
2023-03-02T21:34:00.157Z,98162.00
2023-03-02T21:38:04.368Z,98167.00
2023-03-02T21:42:05.615Z,98162.00
2023-03-02T21:46:06.893Z,98173.00
2023-03-02T21:50:14.467Z,98167.00
2023-03-02T21:54:15.598Z,98161.00
2023-03-02T21:58:16.859Z,98169.00
2023-03-02T22:02:17.927Z,98156.00
2023-03-02T22:06:26.718Z,98158.00
2023-03-02T22:10:36.134Z,98166.00
2023-03-02T22:14:37.187Z,98162.00
2023-03-02T22:18:38.675Z,98155.00
2023-03-02T22:22:39.750Z,98162.00
2023-03-02T22:26:44.305Z,98161.00
2023-03-02T22:30:45.589Z,98151.00
2023-03-02T22:34:48.805Z,98161.00
2023-03-02T22:38:50.529Z,98157.00
2023-03-02T22:42:55.474Z,98159.00
2023-03-02T22:46:57.867Z,98161.00
2023-03-02T22:50:59.097Z,98165.00
2023-03-02T22:55:01.517Z,98172.00
2023-03-02T22:59:07.006Z,98169.00
2023-03-02T23:03:20.502Z,98162.00
2023-03-02T23:07:22.114Z,98155.00
2023-03-02T23:11:23.822Z,98160.00
2023-03-02T23:15:25.073Z,98153.00
2023-03-02T23:19:28.599Z,98157.00
2023-03-02T23:23:30.271Z,98159.00
2023-03-02T23:27:31.560Z,98154.00
2023-03-02T23:31:33.360Z,98157.00
2023-03-02T23:35:34.661Z,98151.00
2023-03-02T23:39:35.956Z,98151.00
2023-03-02T23:43:37.096Z,98155.00
2023-03-02T23:47:38.290Z,98153.00
2023-03-02T23:51:40.305Z,98148.00
2023-03-02T23:55:45.629Z,98158.00
2023-03-02T23:59:46.690Z,98159.00
